Time;durP1;ratioP1;P1;durP2;ratioP2;P2;SDS_P1;SDS_P2;PMS_P1;PMS_P2;Temp;Humidity;BMP_temperature;BMP_pressure;BME280_temperature;BME280_humidity;BME280_pressure;Samples;Min_cycle;Max_cycle;Signal;HPM_P1;HPM_P2
2023/12/12 00:00:11;;;;;;;38.03;14.13;;;6.90;99.90;;;;;;5095576;28;20939;-50
2023/12/12 00:02:36;;;;;;;34.10;13.73;;;6.80;99.90;;;;;;5096110;28;20203;-50
2023/12/12 00:05:02;;;;;;;37.03;13.60;;;6.70;99.90;;;;;;5095895;28;20883;-50
2023/12/12 00:07:28;;;;;;;39.67;14.20;;;6.70;99.90;;;;;;5095498;28;20627;-50
2023/12/12 00:09:54;;;;;;;36.13;13.40;;;6.60;99.90;;;;;;5095829;28;20243;-51
2023/12/12 00:12:20;;;;;;;42.03;15.23;;;6.50;99.90;;;;;;5095765;28;20419;-50
2023/12/12 00:14:46;;;;;;;38.17;14.70;;;6.40;99.90;;;;;;5095353;28;20230;-51
2023/12/12 00:17:11;;;;;;;46.77;14.60;;;6.30;99.90;;;;;;5095576;28;20248;-50
2023/12/12 00:19:41;;;;;;;38.63;14.10;;;6.30;99.90;;;;;;5095769;28;20675;-50
2023/12/12 00:22:07;;;;;;;29.70;13.10;;;6.20;99.90;;;;;;5095946;28;20190;-49
2023/12/12 00:24:32;;;;;;;35.90;12.30;;;6.30;99.90;;;;;;5095975;28;20768;-49
2023/12/12 00:26:58;;;;;;;21.83;10.60;;;6.30;99.90;;;;;;5095335;28;20179;-49
2023/12/12 00:29:24;;;;;;;25.73;9.03;;;6.10;99.90;;;;;;5095285;28;20228;-49
2023/12/12 00:31:49;;;;;;;21.10;9.20;;;6.00;99.90;;;;;;5095511;28;20181;-50
2023/12/12 00:34:15;;;;;;;22.60;10.10;;;5.90;99.90;;;;;;5095428;28;20184;-49
2023/12/12 00:36:41;;;;;;;28.50;10.10;;;5.80;99.90;;;;;;5095211;28;20181;-50
2023/12/12 00:39:07;;;;;;;26.60;9.40;;;5.80;99.90;;;;;;5095303;28;20646;-49
2023/12/12 00:41:34;;;;;;;36.93;9.40;;;5.80;99.90;;;;;;5094961;28;20425;-50
2023/12/12 00:43:59;;;;;;;35.27;10.40;;;5.70;99.90;;;;;;5094893;28;20937;-50
2023/12/12 00:46:25;;;;;;;36.83;9.70;;;5.70;99.90;;;;;;5095340;28;20410;-50
2023/12/12 00:48:51;;;;;;;43.03;9.83;;;5.70;99.90;;;;;;5094987;28;20808;-49
2023/12/12 00:51:16;;;;;;;45.10;10.80;;;5.70;99.90;;;;;;5095177;28;20188;-50
2023/12/12 00:53:42;;;;;;;36.73;11.43;;;5.60;99.90;;;;;;5094821;28;20177;-50
2023/12/12 00:56:08;;;;;;;36.27;8.93;;;5.60;99.90;;;;;;5095228;28;20537;-50
2023/12/12 00:58:33;;;;;;;99.70;12.50;;;5.70;99.90;;;;;;5094874;28;20181;-50
2023/12/12 01:00:59;;;;;;;59.73;13.37;;;5.70;99.90;;;;;;5094940;28;20188;-49
2023/12/12 01:03:24;;;;;;;128.40;15.20;;;5.70;99.90;;;;;;5094654;28;20185;-50
2023/12/12 01:05:50;;;;;;;100.07;15.40;;;5.70;99.90;;;;;;5094544;28;20232;-50
2023/12/12 01:08:15;;;;;;;36.00;10.90;;;5.70;99.90;;;;;;5094788;28;20215;-50
2023/12/12 01:10:41;;;;;;;42.40;10.80;;;5.70;99.90;;;;;;5094516;28;20696;-50
2023/12/12 01:13:07;;;;;;;44.97;10.87;;;5.70;99.90;;;;;;5094595;28;20178;-50
2023/12/12 01:15:32;;;;;;;52.70;11.83;;;5.70;99.90;;;;;;5094638;28;20177;-50
2023/12/12 01:17:58;;;;;;;47.33;11.93;;;5.70;99.90;;;;;;5094477;28;20272;-50
2023/12/12 01:20:23;;;;;;;90.97;14.60;;;5.70;99.90;;;;;;5094376;28;20177;-50
2023/12/12 01:22:49;;;;;;;68.53;13.00;;;5.70;99.90;;;;;;5094525;28;20188;-50
2023/12/12 01:25:14;;;;;;;47.53;13.07;;;5.70;99.90;;;;;;5094532;28;20177;-50
2023/12/12 01:27:40;;;;;;;46.20;12.30;;;5.70;99.90;;;;;;5094426;28;20869;-50
2023/12/12 01:30:06;;;;;;;59.33;12.30;;;5.70;99.90;;;;;;5094243;28;20191;-50
2023/12/12 01:32:32;;;;;;;55.63;13.10;;;5.70;99.90;;;;;;5094173;28;20184;-50
2023/12/12 01:34:57;;;;;;;71.40;13.33;;;5.70;99.90;;;;;;5093924;28;20407;-49
2023/12/12 01:37:23;;;;;;;66.17;12.33;;;5.70;99.90;;;;;;5094230;28;20184;-50
2023/12/12 01:39:48;;;;;;;59.63;13.67;;;5.70;99.90;;;;;;5094205;28;20242;-50
2023/12/12 01:42:14;;;;;;;73.87;14.23;;;5.70;99.90;;;;;;5094266;28;20177;-50
2023/12/12 01:44:39;;;;;;;60.93;13.63;;;5.70;99.90;;;;;;5093869;28;20178;-50
2023/12/12 01:47:06;;;;;;;65.07;16.20;;;5.70;99.90;;;;;;5094198;28;20181;-50
2023/12/12 01:49:31;;;;;;;71.33;16.60;;;5.70;99.90;;;;;;5093992;28;20237;-50
2023/12/12 01:51:57;;;;;;;56.20;15.47;;;5.70;99.90;;;;;;5093813;28;20454;-50
2023/12/12 01:54:23;;;;;;;75.73;15.47;;;5.70;99.90;;;;;;5093884;28;20223;-49
2023/12/12 01:56:51;;;;;;;132.93;20.03;;;5.70;99.90;;;;;;5094058;28;20260;-50
2023/12/12 01:59:19;;;;;;;73.50;17.23;;;5.60;99.90;;;;;;5093854;28;20432;-50
2023/12/12 02:01:45;;;;;;;69.63;16.67;;;5.70;99.90;;;;;;5093961;28;20422;-50
2023/12/12 02:04:11;;;;;;;113.50;18.50;;;5.60;99.90;;;;;;5075354;28;20419;-50
2023/12/12 02:06:37;;;;;;;111.73;18.73;;;5.70;99.90;;;;;;5093252;28;20248;-50
2023/12/12 02:09:04;;;;;;;123.47;18.73;;;5.70;99.90;;;;;;5093909;28;20480;-49
2023/12/12 02:11:29;;;;;;;79.87;17.60;;;5.70;99.90;;;;;;5093573;28;20422;-50
2023/12/12 02:13:55;;;;;;;82.77;20.00;;;5.60;99.90;;;;;;5092840;28;20415;-50
2023/12/12 02:16:21;;;;;;;95.20;19.33;;;5.70;99.90;;;;;;5093096;28;20180;-50
2023/12/12 02:18:46;;;;;;;120.53;21.57;;;5.70;99.90;;;;;;5093711;28;20254;-50
2023/12/12 02:21:19;;;;;;;93.13;20.57;;;5.70;99.90;;;;;;5093382;28;20545;-50
2023/12/12 02:23:47;;;;;;;92.10;20.23;;;5.70;99.90;;;;;;5093226;28;20633;-50
2023/12/12 02:26:13;;;;;;;70.00;20.47;;;5.70;99.90;;;;;;5093354;28;20423;-49
2023/12/12 02:28:39;;;;;;;87.63;20.63;;;5.70;99.90;;;;;;5093210;28;20794;-50
2023/12/12 02:31:05;;;;;;;83.60;19.30;;;5.70;99.90;;;;;;5093589;28;20184;-50
2023/12/12 02:33:30;;;;;;;189.33;22.70;;;5.80;99.90;;;;;;5093240;28;20450;-50
2023/12/12 02:35:56;;;;;;;187.57;23.83;;;5.70;99.90;;;;;;5093332;28;20628;-50
2023/12/12 02:38:21;;;;;;;98.63;20.70;;;5.80;99.90;;;;;;5093710;28;20648;-51
2023/12/12 02:40:47;;;;;;;69.90;18.23;;;5.80;99.90;;;;;;5093402;28;20187;-50
2023/12/12 02:43:13;;;;;;;105.17;20.23;;;5.70;99.90;;;;;;5093358;28;20274;-50
2023/12/12 02:45:38;;;;;;;143.43;22.13;;;5.70;99.90;;;;;;5093466;28;20234;-50
2023/12/12 02:48:04;;;;;;;144.37;25.30;;;5.80;99.90;;;;;;5092933;28;20342;-50
2023/12/12 02:50:29;;;;;;;115.23;20.93;;;5.80;99.90;;;;;;5093419;28;20188;-50
2023/12/12 02:52:55;;;;;;;135.13;23.00;;;5.80;99.90;;;;;;5093325;28;20180;-50
2023/12/12 02:55:20;;;;;;;157.90;23.40;;;5.70;99.90;;;;;;5093172;28;20253;-50
2023/12/12 02:57:46;;;;;;;102.73;22.53;;;5.70;99.90;;;;;;5093078;28;20189;-50
2023/12/12 03:00:12;;;;;;;230.90;30.37;;;5.80;99.90;;;;;;5092882;28;20186;-50
2023/12/12 03:02:37;;;;;;;77.17;19.93;;;5.70;99.90;;;;;;5092764;28;20246;-50
2023/12/12 03:05:04;;;;;;;118.13;19.53;;;5.80;99.90;;;;;;5092729;28;20225;-51
2023/12/12 03:07:30;;;;;;;331.67;26.57;;;5.80;99.90;;;;;;5093252;28;20559;-50
2023/12/12 03:09:55;;;;;;;275.53;28.27;;;5.80;99.90;;;;;;5092930;28;20419;-50
2023/12/12 03:12:21;;;;;;;93.07;20.20;;;5.80;99.90;;;;;;5092843;28;20623;-50
2023/12/12 03:14:46;;;;;;;260.60;28.17;;;5.80;99.90;;;;;;5093092;28;20182;-50
2023/12/12 03:17:12;;;;;;;112.30;21.80;;;5.80;99.90;;;;;;5093392;28;20177;-50
2023/12/12 03:19:38;;;;;;;121.43;20.83;;;5.80;99.90;;;;;;5093195;28;20276;-50
2023/12/12 03:22:03;;;;;;;163.10;24.40;;;5.80;99.90;;;;;;5092777;28;20534;-50
2023/12/12 03:24:29;;;;;;;116.20;19.83;;;5.80;99.90;;;;;;5092686;28;20219;-50
2023/12/12 03:26:55;;;;;;;97.07;19.47;;;5.80;99.90;;;;;;5095666;28;20181;-50
2023/12/12 03:29:20;;;;;;;220.00;23.20;;;5.80;99.90;;;;;;5096304;28;20211;-50
2023/12/12 03:31:46;;;;;;;115.07;19.63;;;5.80;99.90;;;;;;5096808;28;20189;-50
2023/12/12 03:34:12;;;;;;;101.23;18.80;;;5.80;99.90;;;;;;5096437;28;20231;-50
2023/12/12 03:36:44;;;;;;;146.37;20.97;;;5.80;99.90;;;;;;5096421;28;20184;-50
2023/12/12 03:39:10;;;;;;;369.33;28.03;;;5.80;99.90;;;;;;5096552;28;20192;-50
2023/12/12 03:41:36;;;;;;;195.30;26.47;;;5.80;99.90;;;;;;5096588;28;20514;-50
2023/12/12 03:44:02;;;;;;;113.77;19.73;;;5.80;99.90;;;;;;5096483;28;20407;-50
2023/12/12 03:46:27;;;;;;;120.83;21.13;;;5.80;99.90;;;;;;5096536;28;20421;-50
2023/12/12 03:48:53;;;;;;;160.90;25.90;;;5.80;99.90;;;;;;5096179;28;20235;-50
2023/12/12 03:51:18;;;;;;;214.13;22.10;;;5.80;99.90;;;;;;5096428;28;20192;-50
2023/12/12 03:53:44;;;;;;;298.27;29.30;;;5.90;99.90;;;;;;5095953;28;20181;-50
2023/12/12 03:56:10;;;;;;;162.60;21.50;;;5.80;99.90;;;;;;5096389;28;20283;-50
2023/12/12 03:58:35;;;;;;;207.77;25.93;;;5.80;99.90;;;;;;5096196;28;20241;-50
2023/12/12 04:01:01;;;;;;;201.17;27.10;;;5.80;99.90;;;;;;5096023;28;20310;-50
2023/12/12 04:03:27;;;;;;;178.47;25.50;;;5.90;99.90;;;;;;5096297;28;20188;-50
2023/12/12 04:05:53;;;;;;;224.40;24.03;;;5.90;99.90;;;;;;5095903;28;20867;-50
2023/12/12 04:08:18;;;;;;;168.47;22.50;;;5.90;99.90;;;;;;5096084;28;20560;-50
2023/12/12 04:10:44;;;;;;;184.13;21.47;;;5.90;99.90;;;;;;5095669;28;20184;-50
2023/12/12 04:13:10;;;;;;;96.07;19.93;;;5.80;99.90;;;;;;5095815;28;20192;-50
2023/12/12 04:15:35;;;;;;;143.07;21.60;;;5.80;99.90;;;;;;5095481;28;20192;-51
2023/12/12 04:18:01;;;;;;;183.83;24.47;;;5.90;99.90;;;;;;5095732;28;20184;-50
2023/12/12 04:20:26;;;;;;;124.00;20.57;;;5.90;99.90;;;;;;5095784;28;20595;-50
2023/12/12 04:22:52;;;;;;;84.47;18.97;;;5.90;99.90;;;;;;5095690;28;20652;-50
2023/12/12 04:25:19;;;;;;;91.00;23.13;;;5.90;99.90;;;;;;5095980;28;20190;-50
2023/12/12 04:27:45;;;;;;;119.93;22.10;;;5.90;99.90;;;;;;5095616;28;20196;-50
2023/12/12 04:30:11;;;;;;;116.30;20.70;;;5.90;99.90;;;;;;5095391;28;20412;-50
2023/12/12 04:32:37;;;;;;;90.80;19.67;;;5.90;99.90;;;;;;5095576;28;20182;-50
2023/12/12 04:35:05;;;;;;;97.13;20.10;;;5.90;99.90;;;;;;5095350;28;20410;-50
2023/12/12 04:37:31;;;;;;;130.60;23.57;;;5.90;99.90;;;;;;5094325;28;20182;-50
2023/12/12 04:39:56;;;;;;;111.83;19.30;;;5.90;99.90;;;;;;5095148;28;20769;-50
2023/12/12 04:42:23;;;;;;;85.83;20.07;;;6.00;99.90;;;;;;5095342;28;20180;-50
2023/12/12 04:44:50;;;;;;;91.60;21.20;;;6.00;99.90;;;;;;5095138;28;20638;-50
2023/12/12 04:47:16;;;;;;;73.70;17.60;;;6.00;99.90;;;;;;5095105;28;20468;-50
2023/12/12 04:49:41;;;;;;;95.67;21.37;;;5.90;99.90;;;;;;5094903;28;20474;-50
2023/12/12 04:52:07;;;;;;;97.47;20.30;;;5.90;99.90;;;;;;5094879;28;20208;-50
2023/12/12 04:54:33;;;;;;;90.70;19.63;;;5.90;99.90;;;;;;5094911;28;20181;-50
2023/12/12 04:56:59;;;;;;;76.77;19.73;;;5.90;99.90;;;;;;5094854;28;20452;-50
2023/12/12 04:59:25;;;;;;;91.40;19.43;;;5.90;99.90;;;;;;5094807;28;20191;-50
2023/12/12 05:01:51;;;;;;;70.30;17.70;;;6.00;99.90;;;;;;5094870;28;20841;-50
2023/12/12 05:04:16;;;;;;;63.63;17.60;;;6.00;99.90;;;;;;5095119;28;20176;-50
2023/12/12 05:06:42;;;;;;;74.63;18.53;;;6.00;99.90;;;;;;5094293;28;20292;-50
2023/12/12 05:09:08;;;;;;;74.63;17.67;;;6.00;99.90;;;;;;5094943;28;20307;-50
2023/12/12 05:11:34;;;;;;;70.50;17.97;;;6.00;99.90;;;;;;5094379;28;20422;-50
2023/12/12 05:14:00;;;;;;;80.57;18.90;;;6.00;99.90;;;;;;5094628;28;20193;-50
2023/12/12 05:16:25;;;;;;;68.03;17.17;;;6.00;99.90;;;;;;5094233;28;20411;-50
2023/12/12 05:18:52;;;;;;;73.53;19.80;;;6.00;99.90;;;;;;5094756;28;20270;-50
2023/12/12 05:21:21;;;;;;;66.83;19.10;;;6.00;99.90;;;;;;5094734;28;20211;-50
2023/12/12 05:23:48;;;;;;;104.83;20.20;;;6.00;99.90;;;;;;5094337;28;20934;-50
2023/12/12 05:26:15;;;;;;;86.90;18.83;;;6.00;99.90;;;;;;5094356;28;20419;-50
2023/12/12 05:28:41;;;;;;;82.43;19.43;;;6.00;99.90;;;;;;5094402;28;20471;-50
2023/12/12 05:31:07;;;;;;;77.03;19.80;;;6.00;99.90;;;;;;5094335;28;20472;-50
2023/12/12 05:33:33;;;;;;;73.97;18.87;;;6.00;99.90;;;;;;5094246;28;20824;-50
2023/12/12 05:35:59;;;;;;;106.10;21.10;;;6.00;99.90;;;;;;5094524;28;20508;-50
2023/12/12 05:38:24;;;;;;;115.43;21.67;;;6.00;99.90;;;;;;5094158;28;20431;-50
2023/12/12 05:40:50;;;;;;;73.23;16.50;;;6.00;99.90;;;;;;5094503;28;20228;-50
2023/12/12 05:43:15;;;;;;;72.70;17.40;;;6.00;99.90;;;;;;5094291;28;20582;-50
2023/12/12 05:45:41;;;;;;;72.33;17.30;;;6.00;99.90;;;;;;5093848;28;20182;-50
2023/12/12 05:48:07;;;;;;;82.50;19.27;;;6.00;99.90;;;;;;5094124;28;20296;-50
2023/12/12 05:50:32;;;;;;;75.80;17.80;;;6.00;99.90;;;;;;5093936;28;20264;-50
2023/12/12 05:52:58;;;;;;;77.07;18.90;;;6.00;99.90;;;;;;5093659;28;20527;-51
2023/12/12 05:55:23;;;;;;;58.83;16.33;;;6.00;99.90;;;;;;5093616;28;20177;-50
2023/12/12 05:57:49;;;;;;;61.77;15.67;;;6.00;99.90;;;;;;5093910;28;20228;-50
2023/12/12 06:00:15;;;;;;;52.53;14.07;;;6.00;99.90;;;;;;5093868;28;20188;-50
2023/12/12 06:02:41;;;;;;;64.27;17.17;;;5.90;99.90;;;;;;5093620;28;20507;-50
2023/12/12 06:05:07;;;;;;;61.40;16.47;;;6.00;99.90;;;;;;5093459;28;20434;-50
2023/12/12 06:07:34;;;;;;;65.23;16.37;;;6.00;99.90;;;;;;5093597;28;20415;-50
2023/12/12 06:09:59;;;;;;;58.83;15.77;;;6.00;99.90;;;;;;5093813;28;20409;-50
2023/12/12 06:12:25;;;;;;;56.73;16.07;;;6.00;99.90;;;;;;5093660;28;20899;-49
2023/12/12 06:14:51;;;;;;;59.13;16.43;;;6.00;99.90;;;;;;5093700;28;20184;-50
2023/12/12 06:17:16;;;;;;;71.47;16.63;;;6.00;99.90;;;;;;5093270;28;20177;-50
2023/12/12 06:19:42;;;;;;;53.87;16.00;;;6.00;99.90;;;;;;5093683;28;20272;-50
2023/12/12 06:22:08;;;;;;;61.87;15.63;;;6.00;99.90;;;;;;5093548;28;20181;-50
2023/12/12 06:24:34;;;;;;;74.50;17.63;;;6.00;99.90;;;;;;5093443;28;20185;-50
2023/12/12 06:26:59;;;;;;;54.10;14.87;;;6.00;99.90;;;;;;5093569;28;20472;-50
2023/12/12 06:29:25;;;;;;;73.33;17.27;;;6.00;99.90;;;;;;5093197;28;20467;-50
2023/12/12 06:31:50;;;;;;;79.70;17.57;;;6.10;99.90;;;;;;5093310;28;20219;-51
2023/12/12 06:34:16;;;;;;;103.60;18.33;;;6.00;99.90;;;;;;5093441;28;20283;-50
2023/12/12 06:36:41;;;;;;;82.30;18.30;;;6.10;99.90;;;;;;5093904;28;20264;-51
2023/12/12 06:39:10;;;;;;;84.30;19.00;;;6.10;99.90;;;;;;5093450;28;20184;-51
2023/12/12 06:41:36;;;;;;;89.70;17.80;;;6.10;99.90;;;;;;5093817;28;20180;-50
2023/12/12 06:44:02;;;;;;;78.40;19.07;;;6.10;99.90;;;;;;5092921;28;20415;-51
2023/12/12 06:46:28;;;;;;;67.33;16.83;;;6.10;99.90;;;;;;5093151;28;20415;-51
2023/12/12 06:48:54;;;;;;;80.63;17.60;;;6.10;99.90;;;;;;5093338;28;20630;-51
2023/12/12 06:51:20;;;;;;;100.03;21.17;;;6.10;99.90;;;;;;5092785;28;20416;-51
2023/12/12 06:53:45;;;;;;;114.17;17.23;;;6.10;99.90;;;;;;5093103;28;20181;-51
2023/12/12 06:56:11;;;;;;;106.90;18.30;;;6.10;99.90;;;;;;5092893;28;20428;-50
2023/12/12 06:58:36;;;;;;;68.37;16.47;;;6.10;99.90;;;;;;5093120;28;20187;-50
2023/12/12 07:01:03;;;;;;;71.20;17.17;;;6.10;99.90;;;;;;5094611;28;20269;-51
2023/12/12 07:03:29;;;;;;;83.40;19.53;;;6.10;99.90;;;;;;5096913;28;20197;-51
2023/12/12 07:05:54;;;;;;;90.43;19.53;;;6.00;99.90;;;;;;5096910;28;20493;-51
2023/12/12 07:08:20;;;;;;;77.27;18.07;;;6.00;99.90;;;;;;5097099;28;20355;-51
2023/12/12 07:10:47;;;;;;;86.07;16.97;;;6.00;99.90;;;;;;5096664;28;20249;-51
2023/12/12 07:13:13;;;;;;;71.37;17.57;;;6.00;99.90;;;;;;5096825;28;20421;-51
2023/12/12 07:15:39;;;;;;;77.07;17.40;;;6.00;99.90;;;;;;5097050;28;20404;-50
2023/12/12 07:18:10;;;;;;;70.57;18.67;;;6.00;99.90;;;;;;5096986;28;20237;-49
2023/12/12 07:20:40;;;;;;;65.03;16.43;;;6.00;99.90;;;;;;5097071;28;20426;-50
2023/12/12 07:23:06;;;;;;;76.40;17.03;;;6.10;99.90;;;;;;5096928;28;20410;-50
2023/12/12 07:25:32;;;;;;;61.60;15.70;;;6.10;99.90;;;;;;5096658;28;20430;-50
2023/12/12 07:27:58;;;;;;;64.40;15.37;;;6.10;99.90;;;;;;5078491;28;20274;-50
2023/12/12 07:30:23;;;;;;;70.60;15.87;;;6.10;99.90;;;;;;5096207;28;20642;-50
2023/12/12 07:32:49;;;;;;;70.60;17.40;;;6.10;99.90;;;;;;5096305;28;20250;-51
2023/12/12 07:35:16;;;;;;;68.17;17.80;;;6.10;99.90;;;;;;5096430;28;20183;-51
2023/12/12 07:37:42;;;;;;;77.23;19.10;;;6.10;99.90;;;;;;5096683;28;20199;-51
2023/12/12 07:40:08;;;;;;;72.17;17.43;;;6.10;99.90;;;;;;5096534;28;21184;-51
2023/12/12 07:42:34;;;;;;;57.77;15.77;;;6.10;99.90;;;;;;5096563;28;20280;-51
2023/12/12 07:44:59;;;;;;;68.63;16.90;;;6.10;99.90;;;;;;5096123;28;20503;-50
2023/12/12 07:47:25;;;;;;;59.63;17.83;;;6.10;99.90;;;;;;5096361;28;20422;-51
2023/12/12 07:49:51;;;;;;;65.60;19.03;;;6.30;99.90;;;;;;5095932;28;20240;-49
2023/12/12 07:52:17;;;;;;;68.77;16.30;;;6.20;99.90;;;;;;5095850;28;20456;-49
2023/12/12 07:54:43;;;;;;;56.37;16.50;;;6.20;99.90;;;;;;5096215;28;20502;-50
2023/12/12 07:57:09;;;;;;;59.57;16.30;;;6.20;99.90;;;;;;5095757;28;20546;-50
2023/12/12 07:59:35;;;;;;;68.80;18.03;;;6.20;99.90;;;;;;5096069;28;20189;-49
2023/12/12 08:02:01;;;;;;;66.17;17.80;;;6.30;99.90;;;;;;5096057;28;20414;-50
2023/12/12 08:04:26;;;;;;;71.03;18.93;;;6.20;99.90;;;;;;5095684;28;20180;-49
2023/12/12 08:06:52;;;;;;;76.43;20.63;;;6.20;99.90;;;;;;5095475;28;20249;-50
2023/12/12 08:09:18;;;;;;;83.10;18.13;;;6.10;99.90;;;;;;5095500;28;20575;-51
2023/12/12 08:11:43;;;;;;;81.73;19.50;;;6.10;99.90;;;;;;5095438;28;20663;-52
2023/12/12 08:14:09;;;;;;;67.97;17.50;;;6.10;99.90;;;;;;5095104;28;20185;-51
2023/12/12 08:16:34;;;;;;;69.40;18.63;;;6.10;99.90;;;;;;5095748;28;20177;-51
2023/12/12 08:19:00;;;;;;;66.80;18.70;;;6.10;99.90;;;;;;5095572;28;20715;-51
2023/12/12 08:21:26;;;;;;;75.20;18.77;;;6.10;99.90;;;;;;5096012;28;20191;-51
2023/12/12 08:23:52;;;;;;;61.33;16.47;;;6.10;99.90;;;;;;5095392;28;20855;-51
2023/12/12 08:26:17;;;;;;;62.20;17.37;;;6.10;99.90;;;;;;5095434;28;20181;-51
2023/12/12 08:28:43;;;;;;;70.20;18.40;;;6.10;99.90;;;;;;5095472;28;20296;-51
2023/12/12 08:31:09;;;;;;;62.03;17.43;;;6.10;99.90;;;;;;5095682;28;20184;-51
2023/12/12 08:33:34;;;;;;;60.60;15.93;;;6.10;99.90;;;;;;5095824;28;20592;-51
2023/12/12 08:36:00;;;;;;;60.33;16.93;;;6.10;99.90;;;;;;5095441;28;20418;-52
2023/12/12 08:38:26;;;;;;;60.73;17.73;;;6.10;99.90;;;;;;5077145;28;20654;-51
2023/12/12 08:40:52;;;;;;;72.47;18.13;;;6.20;99.90;;;;;;5095480;28;20412;-51
2023/12/12 08:43:17;;;;;;;66.50;16.40;;;6.20;99.90;;;;;;5095089;28;20265;-52
2023/12/12 08:45:46;;;;;;;64.40;15.93;;;6.10;99.90;;;;;;5095274;28;20238;-51
2023/12/12 08:48:12;;;;;;;61.47;16.50;;;6.20;99.90;;;;;;5095351;28;20209;-51
2023/12/12 08:50:38;;;;;;;63.85;18.08;;;6.20;99.90;;;;;;5095128;28;20408;-51
2023/12/12 08:53:03;;;;;;;60.97;16.10;;;6.20;99.90;;;;;;5092956;28;20276;-52
2023/12/12 08:55:30;;;;;;;63.50;15.50;;;6.20;99.90;;;;;;5094315;28;20503;-54
2023/12/12 08:57:55;;;;;;;56.80;14.83;;;6.10;99.90;;;;;;5094751;28;20206;-51
2023/12/12 09:00:21;;;;;;;54.50;16.00;;;6.20;99.90;;;;;;5095045;28;20449;-51
2023/12/12 09:02:47;;;;;;;63.97;15.53;;;6.20;99.90;;;;;;5094721;28;20657;-51
2023/12/12 09:05:13;;;;;;;52.77;15.20;;;6.20;99.90;;;;;;5094719;28;20449;-51
2023/12/12 09:07:40;;;;;;;56.20;15.70;;;6.20;99.90;;;;;;5095141;28;20153;-51
2023/12/12 09:10:06;;;;;;;48.47;14.70;;;6.30;99.90;;;;;;5094824;28;20440;-50
2023/12/12 09:12:33;;;;;;;46.53;15.73;;;6.40;99.90;;;;;;5094785;28;20831;-51
2023/12/12 09:14:58;;;;;;;48.87;14.90;;;6.30;99.90;;;;;;5094715;28;20422;-50
2023/12/12 09:17:24;;;;;;;51.97;15.67;;;6.30;99.90;;;;;;5094606;28;20432;-50
2023/12/12 09:19:50;;;;;;;49.77;15.70;;;6.30;99.90;;;;;;5094664;28;20231;-53
2023/12/12 09:22:15;;;;;;;47.17;15.37;;;6.30;99.90;;;;;;5094715;28;20184;-52
2023/12/12 09:24:41;;;;;;;44.70;15.77;;;6.30;99.90;;;;;;5094193;28;20960;-51
2023/12/12 09:27:06;;;;;;;48.17;14.57;;;6.40;99.90;;;;;;5094621;28;20287;-53
2023/12/12 09:29:32;;;;;;;41.70;13.80;;;6.30;99.90;;;;;;5094468;28;20252;-51
2023/12/12 09:31:58;;;;;;;42.03;16.17;;;6.30;99.90;;;;;;5094005;28;20184;-52
2023/12/12 09:34:24;;;;;;;41.50;13.93;;;6.30;99.90;;;;;;5092877;28;20630;-52
2023/12/12 09:36:50;;;;;;;44.73;14.40;;;6.40;99.90;;;;;;5093149;28;20207;-52
2023/12/12 09:39:16;;;;;;;41.27;14.93;;;6.50;99.90;;;;;;5094329;28;20423;-52
2023/12/12 09:41:46;;;;;;;42.27;15.50;;;6.50;99.90;;;;;;5094347;28;20411;-52
2023/12/12 09:44:15;;;;;;;44.70;16.97;;;6.50;99.90;;;;;;5094304;28;20463;-51
2023/12/12 09:46:42;;;;;;;37.30;14.50;;;6.50;99.90;;;;;;5093948;28;20444;-51
2023/12/12 09:49:11;;;;;;;38.53;15.00;;;6.50;99.90;;;;;;5094156;28;20459;-53
2023/12/12 09:51:40;;;;;;;39.43;14.53;;;6.50;99.90;;;;;;5094026;28;20963;-51
2023/12/12 09:54:07;;;;;;;45.10;16.27;;;6.60;99.90;;;;;;5094126;28;20471;-50
2023/12/12 09:56:35;;;;;;;37.63;14.93;;;6.60;99.90;;;;;;5093775;28;20921;-51
2023/12/12 09:59:01;;;;;;;41.20;14.50;;;6.60;99.90;;;;;;5093998;28;20765;-51
2023/12/12 10:01:27;;;;;;;38.03;15.60;;;6.70;99.90;;;;;;5093798;28;20419;-51
2023/12/12 10:03:54;;;;;;;36.97;15.83;;;6.70;99.90;;;;;;5094154;28;20267;-51
2023/12/12 10:06:23;;;;;;;41.43;14.90;;;6.80;99.90;;;;;;5093691;28;20288;-51
2023/12/12 10:08:49;;;;;;;38.67;15.47;;;6.80;99.90;;;;;;5093609;28;20450;-52
2023/12/12 10:11:14;;;;;;;39.40;15.80;;;6.90;99.90;;;;;;5093685;28;20548;-52
2023/12/12 10:13:56;;;;;;;34.83;14.40;;;6.90;99.90;;;;;;5093616;28;20196;-52
2023/12/12 10:16:25;;;;;;;34.93;14.50;;;6.90;99.90;;;;;;5093646;28;20165;-51
2023/12/12 10:18:52;;;;;;;34.27;14.77;;;7.00;99.90;;;;;;5093661;28;20541;-52
2023/12/12 10:21:22;;;;;;;31.60;13.40;;;7.00;99.90;;;;;;5093528;28;20408;-52
2023/12/12 10:23:52;;;;;;;29.40;12.70;;;7.00;99.90;;;;;;5093598;28;20974;-52
2023/12/12 10:26:29;;;;;;;31.10;12.93;;;7.10;99.90;;;;;;5093260;28;20956;-52
2023/12/12 10:28:55;;;;;;;30.00;12.53;;;7.10;99.90;;;;;;5093602;28;20451;-52
2023/12/12 10:31:22;;;;;;;29.00;12.53;;;7.20;99.90;;;;;;5093305;28;20422;-52
2023/12/12 10:33:48;;;;;;;28.20;12.37;;;7.30;99.90;;;;;;5093529;28;20412;-51
2023/12/12 10:36:14;;;;;;;34.20;14.00;;;7.50;99.90;;;;;;5092650;28;20421;-52
2023/12/12 10:38:40;;;;;;;32.30;13.60;;;7.70;99.90;;;;;;5093655;28;20431;-53
2023/12/12 10:41:17;;;;;;;27.20;13.00;;;7.80;99.90;;;;;;5093276;28;20185;-52
2023/12/12 10:43:44;;;;;;;24.13;12.47;;;7.80;99.90;;;;;;5093377;28;20236;-51
2023/12/12 10:46:18;;;;;;;27.63;13.10;;;7.90;99.90;;;;;;5093504;28;20435;-51
2023/12/12 10:48:46;;;;;;;31.17;13.87;;;7.90;82.70;;;;;;5093162;28;20847;-52
2023/12/12 10:51:13;;;;;;;30.90;15.67;;;8.00;22.20;;;;;;5093312;28;20419;-51
2023/12/12 10:53:44;;;;;;;28.70;13.93;;;8.00;1.00;;;;;;5093060;28;20408;-51
2023/12/12 10:56:11;;;;;;;32.37;16.17;;;8.00;1.00;;;;;;5074930;28;20797;-51
2023/12/12 10:58:39;;;;;;;29.50;14.50;;;7.80;1.00;;;;;;5092997;28;20427;-52
2023/12/12 11:01:09;;;;;;;26.60;12.83;;;7.80;1.00;;;;;;5093153;28;20412;-51
2023/12/12 11:03:36;;;;;;;31.17;14.83;;;7.70;1.00;;;;;;5093210;28;20776;-51
2023/12/12 11:06:03;;;;;;;27.20;13.43;;;7.60;1.00;;;;;;5092607;28;20553;-51
2023/12/12 11:08:30;;;;;;;25.40;14.87;;;7.50;1.00;;;;;;5093024;28;20467;-51
2023/12/12 11:10:55;;;;;;;27.60;14.77;;;7.50;1.00;;;;;;5093004;28;20418;-51
2023/12/12 11:13:24;;;;;;;25.60;13.60;;;7.40;1.00;;;;;;5092738;28;20416;-51
2023/12/12 11:15:52;;;;;;;34.63;16.53;;;7.30;1.00;;;;;;5093070;28;20209;-51
2023/12/12 11:18:20;;;;;;;30.80;14.80;;;7.30;1.00;;;;;;5093126;28;20433;-51
2023/12/12 11:20:46;;;;;;;29.00;14.80;;;7.20;1.00;;;;;;5093147;28;20458;-51
2023/12/12 11:23:44;;;;;;;30.23;15.10;;;7.20;1.00;;;;;;5093194;28;20448;-52
2023/12/12 11:26:14;;;;;;;33.97;16.50;;;7.20;1.00;;;;;;5092714;28;20478;-51
2023/12/12 11:28:39;;;;;;;39.00;16.63;;;7.20;1.00;;;;;;5092590;28;21057;-51
2023/12/12 11:31:06;;;;;;;42.33;17.90;;;7.20;1.00;;;;;;5092555;28;20509;-49
2023/12/12 11:33:36;;;;;;;40.07;18.47;;;7.20;1.00;;;;;;5092794;28;20269;-52
2023/12/12 11:36:01;;;;;;;33.77;17.30;;;7.20;1.00;;;;;;5092656;28;20969;-52
2023/12/12 11:38:33;;;;;;;35.70;18.20;;;7.20;1.00;;;;;;5092977;28;20423;-50
2023/12/12 11:41:09;;;;;;;35.57;17.10;;;7.20;1.00;;;;;;5093019;28;20254;-51
2023/12/12 11:43:36;;;;;;;33.47;14.37;;;7.10;1.00;;;;;;5093015;28;20785;-51
2023/12/12 11:46:19;;;;;;;25.30;12.97;;;7.20;1.00;;;;;;5093022;28;20499;-50
2023/12/12 11:48:45;;;;;;;23.30;12.90;;;7.20;1.00;;;;;;5096419;28;20570;-51
2023/12/12 11:51:42;;;;;;;24.37;12.40;;;7.20;1.00;;;;;;5096148;28;20450;-50
2023/12/12 11:54:19;;;;;;;33.80;17.70;;;7.10;1.00;;;;;;5096302;28;20189;-49
2023/12/12 11:56:45;;;;;;;31.80;16.40;;;7.20;3.90;;;;;;5096189;28;20414;-49
2023/12/12 11:59:11;;;;;;;27.87;14.50;;;7.30;34.50;;;;;;5095873;28;20419;-50
2023/12/12 12:01:37;;;;;;;30.60;15.73;;;7.30;71.00;;;;;;5095979;28;20213;-50
2023/12/12 12:04:02;;;;;;;37.93;13.90;;;7.40;99.90;;;;;;5096100;28;20455;-50
2023/12/12 12:06:28;;;;;;;36.07;16.20;;;7.40;99.90;;;;;;5095725;28;20685;-50
2023/12/12 12:08:54;;;;;;;33.67;16.07;;;7.50;99.90;;;;;;5096013;28;20205;-51
2023/12/12 12:11:19;;;;;;;34.33;14.70;;;7.60;97.50;;;;;;5095871;28;20177;-51
2023/12/12 12:13:45;;;;;;;29.30;13.90;;;7.60;94.30;;;;;;5095868;28;20210;-51
2023/12/12 12:16:11;;;;;;;32.93;18.13;;;7.60;93.30;;;;;;5095587;28;20186;-51
2023/12/12 12:18:38;;;;;;;34.57;15.67;;;7.70;74.50;;;;;;5095763;28;20196;-51
2023/12/12 12:21:04;;;;;;;30.17;14.20;;;7.70;47.20;;;;;;5095688;28;20567;-52
2023/12/12 12:23:35;;;;;;;31.07;14.17;;;7.60;25.50;;;;;;5095659;28;20414;-52
2023/12/12 12:26:00;;;;;;;27.93;14.47;;;7.60;3.60;;;;;;5095865;28;20411;-52
2023/12/12 12:28:35;;;;;;;33.97;14.67;;;7.50;1.00;;;;;;5095188;28;20465;-54
2023/12/12 12:31:02;;;;;;;24.73;12.93;;;7.40;25.30;;;;;;5095574;28;20181;-54